Time;durP1;ratioP1;P1;durP2;ratioP2;P2;SDS_P1;SDS_P2;PMS_P1;PMS_P2;Temp;Humidity;BMP_temperature;BMP_pressure;BME280_temperature;BME280_humidity;BME280_pressure;Samples;Min_cycle;Max_cycle;Signal;HPM_P1;HPM_P2
2021/03/06 00:01:43;;;;;;;6.90;5.10;;;-3.20;99.90;;;;;;4908679;29;20868;-77
2021/03/06 00:04:08;;;;;;;5.32;4.47;;;-3.20;99.90;;;;;;4914817;29;20500;-77
2021/03/06 00:06:34;;;;;;;7.60;5.13;;;-3.30;99.90;;;;;;4912744;29;20409;-77
2021/03/06 00:09:00;;;;;;;6.53;4.70;;;-3.30;99.90;;;;;;4927193;28;20483;-78
2021/03/06 00:11:25;;;;;;;7.20;4.77;;;-3.30;99.90;;;;;;4914245;29;20473;-78
2021/03/06 00:13:51;;;;;;;6.18;4.55;;;-3.30;99.90;;;;;;4925474;29;20413;-77
2021/03/06 00:16:17;;;;;;;8.25;4.70;;;-3.30;99.90;;;;;;4914796;28;20422;-78
2021/03/06 00:18:42;;;;;;;5.72;4.60;;;-3.40;99.90;;;;;;4920139;28;20480;-77
2021/03/06 00:21:08;;;;;;;5.03;4.37;;;-3.30;99.90;;;;;;4908866;29;20405;-77
2021/03/06 00:23:34;;;;;;;5.20;4.33;;;-3.30;99.90;;;;;;4909494;29;20945;-77
2021/03/06 00:26:00;;;;;;;5.57;4.13;;;-3.40;99.90;;;;;;4911333;29;20405;-77
2021/03/06 00:28:26;;;;;;;7.05;4.47;;;-3.40;99.90;;;;;;4926049;28;20476;-78
2021/03/06 00:30:51;;;;;;;5.65;4.07;;;-3.50;99.90;;;;;;4906391;29;20476;-77
2021/03/06 00:33:17;;;;;;;4.38;3.97;;;-3.50;99.90;;;;;;4907955;29;20409;-77
2021/03/06 00:35:43;;;;;;;5.57;4.30;;;-3.60;99.90;;;;;;4930389;28;20420;-78
2021/03/06 00:38:10;;;;;;;5.40;4.37;;;-3.60;99.90;;;;;;4901743;29;20561;-78
2021/03/06 00:40:35;;;;;;;7.60;5.07;;;-3.60;99.90;;;;;;4919599;29;20502;-78
2021/03/06 00:43:01;;;;;;;6.68;4.70;;;-3.60;99.90;;;;;;4921063;28;20524;-77
2021/03/06 00:45:27;;;;;;;5.53;4.30;;;-3.60;99.90;;;;;;4890925;29;20491;-77
2021/03/06 00:47:53;;;;;;;4.85;3.80;;;-3.60;99.90;;;;;;4912915;29;20421;-77
2021/03/06 00:50:27;;;;;;;5.35;4.20;;;-3.50;99.90;;;;;;4923888;29;20935;-77
2021/03/06 00:52:53;;;;;;;6.25;4.40;;;-3.70;99.90;;;;;;4912288;29;20455;-77
2021/03/06 00:55:22;;;;;;;6.03;4.35;;;-3.60;99.90;;;;;;4911228;29;20926;-77
2021/03/06 00:57:48;;;;;;;4.43;3.75;;;-3.50;99.90;;;;;;4912663;28;20439;-77
2021/03/06 01:00:16;;;;;;;4.88;4.15;;;-3.70;99.90;;;;;;4893245;29;20424;-77
2021/03/06 01:02:42;;;;;;;5.05;4.00;;;-3.70;99.90;;;;;;4910598;29;20765;-77
2021/03/06 01:05:09;;;;;;;5.60;4.35;;;-3.70;99.90;;;;;;4911114;29;20424;-77
2021/03/06 01:07:34;;;;;;;7.13;5.22;;;-3.70;99.90;;;;;;4908999;29;20417;-77
2021/03/06 01:10:01;;;;;;;9.37;5.97;;;-3.70;99.90;;;;;;4896632;29;21085;-77
2021/03/06 01:12:26;;;;;;;5.05;4.30;;;-3.70;99.90;;;;;;4911955;29;20417;-77
2021/03/06 01:14:52;;;;;;;5.23;4.30;;;-3.80;99.90;;;;;;4912545;29;20564;-78
2021/03/06 01:17:18;;;;;;;5.17;4.30;;;-3.80;99.90;;;;;;4909027;29;20402;-78
2021/03/06 01:19:43;;;;;;;3.92;3.42;;;-3.80;99.90;;;;;;4913506;29;20536;-77
2021/03/06 01:22:09;;;;;;;7.18;4.07;;;-3.80;99.90;;;;;;4918531;29;20527;-77
2021/03/06 01:24:36;;;;;;;4.72;4.25;;;-3.80;99.90;;;;;;4914927;28;20404;-77
2021/03/06 01:27:02;;;;;;;4.82;4.07;;;-3.90;99.90;;;;;;4894637;29;20452;-77
2021/03/06 01:29:28;;;;;;;3.73;3.33;;;-3.90;99.90;;;;;;4929529;28;20918;-77
2021/03/06 01:31:54;;;;;;;4.65;3.78;;;-3.90;99.90;;;;;;4908988;29;20492;-78
2021/03/06 01:34:20;;;;;;;5.50;4.28;;;-3.90;99.90;;;;;;4910914;29;20402;-78
2021/03/06 01:36:45;;;;;;;4.35;3.63;;;-3.80;99.90;;;;;;4899497;28;21130;-78
2021/03/06 01:39:11;;;;;;;5.00;3.77;;;-3.90;99.90;;;;;;4870936;29;1283045;-78
2021/03/06 01:41:37;;;;;;;6.23;3.43;;;-3.90;99.90;;;;;;4896761;29;20477;-79
2021/03/06 01:44:04;;;;;;;4.13;3.72;;;-3.90;99.90;;;;;;4896725;29;20418;-78
2021/03/06 01:46:32;;;;;;;4.50;3.38;;;-4.00;99.90;;;;;;4909691;29;20412;-77
2021/03/06 01:48:57;;;;;;;3.38;2.92;;;-4.00;99.90;;;;;;4914815;29;20936;-77
2021/03/06 01:51:23;;;;;;;5.30;3.42;;;-4.00;99.90;;;;;;4931293;29;20415;-78
2021/03/06 01:53:49;;;;;;;4.07;3.30;;;-4.00;99.90;;;;;;4918730;29;20408;-77
2021/03/06 01:56:15;;;;;;;4.25;3.50;;;-4.00;99.90;;;;;;4922865;29;20525;-77
2021/03/06 01:58:41;;;;;;;4.68;3.65;;;-4.00;99.90;;;;;;4921709;28;20415;-77
2021/03/06 02:01:09;;;;;;;4.63;3.42;;;-4.00;99.90;;;;;;4926873;29;20472;-77
2021/03/06 02:03:35;;;;;;;3.60;3.05;;;-4.00;99.90;;;;;;4905519;29;21117;-78
2021/03/06 02:06:01;;;;;;;6.17;3.83;;;-4.00;99.90;;;;;;4926698;29;20417;-78
2021/03/06 02:08:31;;;;;;;4.27;3.30;;;-4.00;99.90;;;;;;4925917;29;20421;-78
2021/03/06 02:10:56;;;;;;;3.47;3.17;;;-4.00;99.90;;;;;;4915916;29;20501;-78
2021/03/06 02:13:24;;;;;;;3.40;2.80;;;-4.10;99.90;;;;;;4910510;29;20492;-77
2021/03/06 02:16:18;;;;;;;3.33;3.03;;;-4.20;99.90;;;;;;4933823;28;20412;-78
2021/03/06 02:18:55;;;;;;;3.30;2.88;;;-4.20;99.90;;;;;;4912154;28;20453;-77
2021/03/06 02:21:45;;;;;;;4.22;3.10;;;-4.30;99.90;;;;;;4911424;29;20914;-78
2021/03/06 02:24:27;;;;;;;3.00;2.70;;;-4.30;99.90;;;;;;4928343;28;20409;-78
2021/03/06 02:27:13;;;;;;;4.55;3.20;;;-4.30;99.90;;;;;;4929861;29;20405;-79
2021/03/06 02:30:24;;;;;;;3.63;2.88;;;-4.30;99.90;;;;;;4931760;28;21547;-78
2021/03/06 02:32:57;;;;;;;3.20;2.80;;;-4.30;99.90;;;;;;4861502;29;20488;-78
2021/03/06 02:35:25;;;;;;;3.07;2.60;;;-4.30;99.90;;;;;;4840572;29;20445;-78
2021/03/06 02:37:55;;;;;;;3.33;2.60;;;-4.40;99.90;;;;;;4843009;28;20421;-78
2021/03/06 02:40:20;;;;;;;3.85;3.10;;;-4.40;99.90;;;;;;4935226;28;20409;-78
2021/03/06 02:42:46;;;;;;;3.37;2.80;;;-4.50;99.90;;;;;;4933954;28;20444;-78
2021/03/06 02:45:12;;;;;;;4.07;2.63;;;-4.50;99.90;;;;;;4927169;28;20413;-78
2021/03/06 02:47:38;;;;;;;3.10;2.88;;;-4.50;99.90;;;;;;4916457;29;20417;-78
2021/03/06 02:50:06;;;;;;;3.80;2.97;;;-4.60;99.90;;;;;;4909574;29;20409;-78
2021/03/06 02:52:32;;;;;;;4.22;2.70;;;-4.60;99.90;;;;;;4911154;28;20423;-77
2021/03/06 02:54:58;;;;;;;3.70;2.80;;;-4.50;99.90;;;;;;4917341;28;20417;-77
2021/03/06 02:57:56;;;;;;;3.63;2.83;;;-4.60;99.90;;;;;;4912769;29;20409;-77
2021/03/06 03:00:42;;;;;;;3.00;2.70;;;-4.50;99.90;;;;;;4879151;29;20467;-78
2021/03/06 03:03:11;;;;;;;3.03;2.60;;;-4.40;99.90;;;;;;4911981;29;20417;-77
2021/03/06 03:05:36;;;;;;;2.72;2.38;;;-4.40;99.90;;;;;;4930209;29;20463;-77
2021/03/06 03:08:06;;;;;;;3.92;2.55;;;-4.20;99.90;;;;;;4922821;28;20413;-77
2021/03/06 03:10:33;;;;;;;3.17;2.63;;;-4.30;99.90;;;;;;4898562;29;20435;-77
2021/03/06 03:13:18;;;;;;;3.22;2.92;;;-4.40;99.90;;;;;;4927911;28;20439;-78
2021/03/06 03:15:45;;;;;;;2.55;2.35;;;-4.40;99.90;;;;;;4914328;28;20916;-78
2021/03/06 03:18:28;;;;;;;4.28;2.38;;;-4.40;99.90;;;;;;4889979;29;20467;-81
2021/03/06 03:20:57;;;;;;;3.53;2.60;;;-4.40;99.90;;;;;;4904214;28;20488;-81
2021/03/06 03:23:43;;;;;;;3.10;2.70;;;-4.40;99.90;;;;;;4934014;29;20808;-80
2021/03/06 03:26:11;;;;;;;5.60;2.53;;;-4.50;99.90;;;;;;4929593;28;21094;-80
2021/03/06 03:28:39;;;;;;;3.05;2.47;;;-4.40;99.90;;;;;;4877598;29;20443;-80
2021/03/06 03:31:06;;;;;;;2.78;2.55;;;-4.50;99.90;;;;;;4892389;29;20496;-80
2021/03/06 03:33:32;;;;;;;3.15;2.45;;;-4.50;99.90;;;;;;4911962;29;20956;-80
2021/03/06 03:36:02;;;;;;;2.85;2.40;;;-4.50;99.90;;;;;;4912148;29;20915;-81
2021/03/06 03:38:32;;;;;;;3.20;2.50;;;-4.50;99.90;;;;;;4912772;29;21104;-80
2021/03/06 03:40:59;;;;;;;2.92;2.40;;;-4.40;99.90;;;;;;4911524;29;20910;-80
2021/03/06 03:43:25;;;;;;;3.20;2.33;;;-4.40;99.90;;;;;;4892528;28;20415;-80
2021/03/06 03:45:52;;;;;;;3.13;2.28;;;-4.60;99.90;;;;;;4923355;28;20502;-79
2021/03/06 03:48:18;;;;;;;3.25;2.42;;;-4.60;99.90;;;;;;4931584;28;20415;-81
2021/03/06 03:50:44;;;;;;;3.00;2.50;;;-4.60;99.90;;;;;;4944089;28;20946;-82
2021/03/06 03:53:40;;;;;;;2.53;2.33;;;-4.70;99.90;;;;;;4922928;29;20894;-82
2021/03/06 03:56:08;;;;;;;3.25;2.28;;;-4.70;99.90;;;;;;4886406;29;20516;-80
2021/03/06 03:58:34;;;;;;;3.03;2.72;;;-4.60;99.90;;;;;;4858465;29;20422;-79
2021/03/06 04:01:01;;;;;;;2.73;2.53;;;-4.70;99.90;;;;;;4867753;29;20421;-79
2021/03/06 04:03:28;;;;;;;2.42;2.20;;;-4.60;99.90;;;;;;4866036;29;20459;-80
2021/03/06 04:05:55;;;;;;;2.90;2.50;;;-4.70;99.90;;;;;;4847233;29;20444;-80
2021/03/06 04:08:21;;;;;;;2.53;2.33;;;-4.70;99.90;;;;;;4856225;29;20984;-80
2021/03/06 04:10:49;;;;;;;4.95;2.72;;;-4.80;99.90;;;;;;4839762;29;20404;-80
2021/03/06 04:13:16;;;;;;;4.05;2.53;;;-4.70;99.90;;;;;;4854457;29;21169;-82
2021/03/06 04:15:42;;;;;;;2.88;2.33;;;-4.70;99.90;;;;;;4857645;29;20426;-80
2021/03/06 04:18:08;;;;;;;2.50;2.30;;;-4.80;99.90;;;;;;4856499;29;20483;-80
2021/03/06 04:20:34;;;;;;;2.97;2.47;;;-4.70;99.90;;;;;;4853082;29;20412;-80
2021/03/06 04:23:00;;;;;;;2.38;2.17;;;-4.70;99.90;;;;;;4836779;29;20418;-81
2021/03/06 04:25:26;;;;;;;3.33;2.40;;;-4.70;99.90;;;;;;4854624;29;20405;-80
2021/03/06 04:27:52;;;;;;;2.77;2.30;;;-4.70;99.90;;;;;;4875718;29;20422;-80
2021/03/06 04:30:18;;;;;;;2.70;2.38;;;-4.70;99.90;;;;;;4869463;29;20432;-81
2021/03/06 04:32:44;;;;;;;2.88;2.30;;;-4.70;99.90;;;;;;4861905;29;20408;-80
2021/03/06 04:35:11;;;;;;;2.78;2.20;;;-4.60;99.90;;;;;;4838516;29;20792;-80
2021/03/06 04:37:37;;;;;;;2.80;2.47;;;-5.00;99.90;;;;;;4847417;29;20528;-80
2021/03/06 04:40:05;;;;;;;2.90;2.58;;;-4.80;99.90;;;;;;4860487;29;20778;-80
2021/03/06 04:42:31;;;;;;;2.17;2.03;;;-4.80;99.90;;;;;;4853650;29;20406;-80
2021/03/06 04:44:57;;;;;;;2.20;2.07;;;-4.90;99.90;;;;;;4860989;29;20434;-80
2021/03/06 04:47:23;;;;;;;2.50;2.30;;;-4.70;99.90;;;;;;4866185;29;20408;-79
2021/03/06 04:49:50;;;;;;;2.33;2.13;;;-5.00;99.90;;;;;;4851604;29;20408;-80
2021/03/06 04:52:15;;;;;;;2.53;2.33;;;-4.70;99.90;;;;;;4868103;29;20437;-80
2021/03/06 04:54:41;;;;;;;2.92;2.25;;;-4.80;99.90;;;;;;4855919;29;20436;-79
2021/03/06 04:57:08;;;;;;;2.65;2.35;;;-4.90;99.90;;;;;;4852809;29;20501;-80
2021/03/06 04:59:35;;;;;;;2.38;2.17;;;-4.90;99.90;;;;;;4857738;29;20464;-79
2021/03/06 05:02:01;;;;;;;2.23;2.03;;;-4.80;99.90;;;;;;4853245;29;20404;-79
2021/03/06 05:04:27;;;;;;;2.17;2.00;;;-4.90;99.90;;;;;;4874360;29;20422;-79
2021/03/06 05:06:53;;;;;;;3.53;2.30;;;-4.90;99.90;;;;;;4860725;29;20409;-80
2021/03/06 05:09:19;;;;;;;3.00;2.30;;;-4.70;99.90;;;;;;4860106;29;20407;-80
2021/03/06 05:11:45;;;;;;;2.35;2.15;;;-4.80;99.90;;;;;;4825631;29;20414;-79
2021/03/06 05:14:11;;;;;;;2.87;2.10;;;-4.60;99.90;;;;;;4841114;29;20430;-80
2021/03/06 05:16:37;;;;;;;2.33;2.10;;;-4.80;99.90;;;;;;4855497;29;20583;-80
2021/03/06 05:19:03;;;;;;;3.40;2.70;;;-4.80;99.90;;;;;;4865126;29;20412;-80
2021/03/06 05:21:30;;;;;;;3.28;2.20;;;-4.70;99.90;;;;;;4848256;29;20417;-80
2021/03/06 05:23:55;;;;;;;2.25;2.05;;;-4.80;99.90;;;;;;4877954;29;20422;-79
2021/03/06 05:26:22;;;;;;;3.50;2.30;;;-4.70;99.90;;;;;;4863259;29;20424;-78
2021/03/06 05:28:47;;;;;;;2.42;2.05;;;-4.80;99.90;;;;;;4869643;29;20419;-80
2021/03/06 05:31:13;;;;;;;2.40;2.20;;;-4.70;99.90;;;;;;4864863;29;20433;-79
2021/03/06 05:33:39;;;;;;;2.20;2.00;;;-4.70;99.90;;;;;;4857009;29;20447;-81
2021/03/06 05:36:05;;;;;;;2.57;2.00;;;-4.70;99.90;;;;;;4879446;29;20421;-79
2021/03/06 05:38:31;;;;;;;2.20;2.00;;;-4.70;99.90;;;;;;4848599;29;20475;-80
2021/03/06 05:40:57;;;;;;;3.15;2.30;;;-4.70;99.90;;;;;;4870621;29;20406;-79
2021/03/06 05:43:23;;;;;;;2.30;2.10;;;-4.70;99.90;;;;;;4867257;29;20412;-80
2021/03/06 05:45:49;;;;;;;2.70;2.22;;;-4.60;99.90;;;;;;4867931;29;20414;-80
2021/03/06 05:48:18;;;;;;;2.47;2.22;;;-4.60;99.90;;;;;;4870812;29;20438;-80
2021/03/06 05:50:45;;;;;;;3.67;2.50;;;-4.60;99.90;;;;;;4859723;29;20538;-80
2021/03/06 05:53:11;;;;;;;3.67;2.55;;;-4.40;99.90;;;;;;4846386;29;20411;-80
2021/03/06 05:55:39;;;;;;;2.60;2.30;;;-4.40;99.90;;;;;;4863852;29;20423;-80
2021/03/06 05:58:05;;;;;;;2.47;2.28;;;-4.60;99.90;;;;;;4845519;29;21068;-79
2021/03/06 06:00:31;;;;;;;2.83;1.92;;;-4.60;99.90;;;;;;4857529;29;20760;-79
2021/03/06 06:02:57;;;;;;;2.50;2.30;;;-4.60;99.90;;;;;;4856797;29;20982;-80
2021/03/06 06:05:23;;;;;;;2.92;2.63;;;-4.60;99.90;;;;;;4849518;29;20420;-80
2021/03/06 06:07:50;;;;;;;2.50;2.30;;;-4.40;99.90;;;;;;4846641;29;20414;-80
2021/03/06 06:10:16;;;;;;;3.30;2.40;;;-4.50;99.90;;;;;;4862849;29;20439;-80
2021/03/06 06:12:42;;;;;;;2.35;2.13;;;-4.40;99.90;;;;;;4861739;29;20438;-79
2021/03/06 06:15:10;;;;;;;2.63;2.42;;;-4.40;99.90;;;;;;4866573;29;20426;-78
2021/03/06 06:17:35;;;;;;;3.13;2.40;;;-4.40;99.90;;;;;;4866195;29;20429;-80
2021/03/06 06:20:01;;;;;;;2.77;2.50;;;-4.30;99.90;;;;;;4888155;29;21049;-80
2021/03/06 06:22:27;;;;;;;2.53;2.33;;;-4.30;99.90;;;;;;4862331;29;20440;-80
2021/03/06 06:24:54;;;;;;;3.00;2.45;;;-4.00;99.90;;;;;;4853497;29;20421;-81
2021/03/06 06:27:28;;;;;;;2.58;2.38;;;-4.20;99.90;;;;;;4863284;29;20754;-80
2021/03/06 06:29:55;;;;;;;2.60;2.40;;;-4.10;99.90;;;;;;4873971;29;20432;-80
2021/03/06 06:32:44;;;;;;;2.70;2.33;;;-4.10;99.90;;;;;;4860835;29;20401;-81
2021/03/06 06:35:12;;;;;;;3.00;2.60;;;-4.00;99.90;;;;;;4859673;29;20495;-80
2021/03/06 06:37:37;;;;;;;3.83;2.83;;;-3.90;99.90;;;;;;4862428;29;20413;-80
2021/03/06 06:40:19;;;;;;;3.47;2.90;;;-3.90;99.90;;;;;;4892804;29;20411;-80
2021/03/06 06:42:45;;;;;;;4.55;2.90;;;-3.80;99.90;;;;;;4863011;29;20422;-80
2021/03/06 06:45:11;;;;;;;3.00;2.70;;;-3.70;99.90;;;;;;4863800;29;20401;-81
2021/03/06 06:47:42;;;;;;;3.45;2.70;;;-3.70;99.90;;;;;;4847650;29;20415;-80
2021/03/06 06:50:09;;;;;;;4.63;3.13;;;-3.70;99.90;;;;;;4853009;29;20412;-80
2021/03/06 06:52:36;;;;;;;3.20;2.90;;;-3.60;99.90;;;;;;4845363;29;20434;-80
2021/03/06 06:55:01;;;;;;;4.00;2.92;;;-3.50;99.90;;;;;;4881566;29;20428;-80
2021/03/06 06:57:27;;;;;;;4.23;2.97;;;-3.40;99.90;;;;;;4853565;29;20917;-80
2021/03/06 06:59:57;;;;;;;3.78;2.97;;;-3.30;99.90;;;;;;4882544;29;20484;-81
2021/03/06 07:02:23;;;;;;;3.95;3.60;;;-3.20;99.90;;;;;;4879464;29;21630;-81
2021/03/06 07:04:58;;;;;;;3.90;3.03;;;-3.10;99.90;;;;;;4874885;29;20385;-78
2021/03/06 07:07:34;;;;;;;6.03;3.47;;;-3.00;99.90;;;;;;4877249;29;20915;-81
2021/03/06 07:10:11;;;;;;;2.47;2.27;;;-3.00;99.90;;;;;;4859907;29;20405;-80
2021/03/06 07:12:38;;;;;;;2.88;2.47;;;-2.90;99.90;;;;;;4885802;29;20409;-80
2021/03/06 07:15:22;;;;;;;2.87;2.50;;;-2.80;99.90;;;;;;4870188;29;20431;-81
2021/03/06 07:17:49;;;;;;;3.13;2.60;;;-2.70;99.90;;;;;;4873657;29;20414;-81
2021/03/06 07:20:24;;;;;;;2.83;2.40;;;-2.60;99.90;;;;;;4873247;29;20462;-80
2021/03/06 07:22:50;;;;;;;3.15;2.70;;;-2.50;99.90;;;;;;4890563;29;20457;-80
2021/03/06 07:25:15;;;;;;;3.03;2.70;;;-2.30;99.90;;;;;;4862725;29;20492;-83
2021/03/06 07:27:44;;;;;;;5.40;2.90;;;-2.20;99.90;;;;;;4873188;29;20420;-80
2021/03/06 07:30:12;;;;;;;3.53;2.60;;;-2.10;99.90;;;;;;4875924;29;20407;-80
2021/03/06 07:32:41;;;;;;;2.63;2.42;;;-2.00;99.90;;;;;;4861098;29;20404;-80
2021/03/06 07:35:08;;;;;;;3.17;2.63;;;-1.80;99.90;;;;;;4868935;29;20421;-81
2021/03/06 07:37:34;;;;;;;3.15;2.83;;;-1.80;99.90;;;;;;4859393;29;20887;-81
2021/03/06 07:40:05;;;;;;;3.47;2.72;;;-1.90;99.90;;;;;;4845652;29;20491;-80
2021/03/06 07:42:42;;;;;;;3.67;2.67;;;-1.70;99.90;;;;;;4863264;29;20415;-81
2021/03/06 07:45:10;;;;;;;2.85;2.60;;;-1.60;99.90;;;;;;4861455;29;20490;-80
2021/03/06 07:47:39;;;;;;;4.13;2.72;;;-1.30;99.90;;;;;;4877676;29;20428;-80
2021/03/06 07:50:10;;;;;;;3.20;2.75;;;-1.20;99.90;;;;;;4873281;29;20916;-81
2021/03/06 07:52:36;;;;;;;3.35;3.05;;;-1.20;99.90;;;;;;4854281;29;20419;-81
2021/03/06 07:55:02;;;;;;;4.28;3.88;;;-1.10;99.90;;;;;;4860532;29;20973;-80
2021/03/06 07:57:28;;;;;;;3.28;2.97;;;-0.90;99.90;;;;;;4859916;29;20409;-81
2021/03/06 07:59:55;;;;;;;3.35;3.05;;;-0.80;99.90;;;;;;4867561;29;20406;-81
2021/03/06 08:02:37;;;;;;;3.10;2.78;;;-0.90;99.90;;;;;;4860207;29;20415;-80
2021/03/06 08:05:23;;;;;;;4.95;2.60;;;-0.70;99.90;;;;;;4863018;29;20420;-81
2021/03/06 08:07:53;;;;;;;4.95;2.85;;;-0.40;99.90;;;;;;4876154;29;20504;-81
2021/03/06 08:23:22;;;;;;;3.00;2.50;;;0.10;99.90;;;;;;4888612;29;20453;-80
2021/03/06 08:25:49;;;;;;;2.63;2.38;;;0.30;99.90;;;;;;4897110;29;20760;-80
2021/03/06 08:28:24;;;;;;;3.55;2.75;;;0.40;99.90;;;;;;4890702;29;20410;-80
2021/03/06 08:30:50;;;;;;;4.78;3.08;;;0.50;99.90;;;;;;4902464;29;20415;-80
2021/03/06 08:33:16;;;;;;;14.55;8.77;;;0.60;99.90;;;;;;4894691;29;20397;-80
2021/03/06 08:35:42;;;;;;;13.80;10.27;;;0.70;99.90;;;;;;4899552;29;20425;-80
2021/03/06 08:38:28;;;;;;;15.07;11.05;;;0.80;99.90;;;;;;4910376;29;20456;-80
2021/03/06 08:40:54;;;;;;;18.90;13.20;;;0.90;99.90;;;;;;4910287;29;20401;-80
2021/03/06 08:43:20;;;;;;;3.78;3.22;;;1.10;99.90;;;;;;4910654;29;20420;-80
2021/03/06 08:45:46;;;;;;;4.57;3.38;;;1.20;99.90;;;;;;4899668;29;20483;-80
2021/03/06 08:48:11;;;;;;;3.58;2.60;;;1.30;99.90;;;;;;4880163;29;20401;-80
2021/03/06 08:50:37;;;;;;;3.33;3.03;;;1.30;99.90;;;;;;4912445;29;20401;-81
2021/03/06 08:53:13;;;;;;;5.30;3.40;;;1.40;99.90;;;;;;4910589;29;20513;-80
2021/03/06 08:55:44;;;;;;;6.65;4.82;;;1.60;99.90;;;;;;4887118;29;21035;-82
2021/03/06 08:58:14;;;;;;;3.88;2.45;;;1.70;99.90;;;;;;4898046;29;20469;-80
2021/03/06 09:00:42;;;;;;;3.03;2.30;;;1.80;99.90;;;;;;4911225;29;20933;-81
2021/03/06 09:03:12;;;;;;;3.10;2.47;;;1.90;99.90;;;;;;4916647;29;20401;-80
2021/03/06 09:05:38;;;;;;;2.67;2.47;;;2.00;99.90;;;;;;4909984;29;20409;-81
2021/03/06 09:08:05;;;;;;;3.70;2.30;;;2.10;99.90;;;;;;4898778;29;20411;-82
2021/03/06 09:10:42;;;;;;;4.57;2.53;;;2.10;99.90;;;;;;4880979;29;20399;-79
2021/03/06 09:13:16;;;;;;;3.00;2.05;;;2.20;99.90;;;;;;4903442;29;20407;-80
2021/03/06 09:15:53;;;;;;;3.08;2.08;;;2.30;99.90;;;;;;4920010;29;20465;-79
2021/03/06 09:18:19;;;;;;;2.28;2.08;;;2.40;99.90;;;;;;4901442;29;20629;-80
2021/03/06 09:20:57;;;;;;;2.25;1.75;;;2.50;99.90;;;;;;4908957;29;20494;-80
2021/03/06 09:23:30;;;;;;;2.58;1.90;;;2.70;99.90;;;;;;4889047;29;20429;-81
2021/03/06 09:25:57;;;;;;;6.20;3.15;;;2.80;99.90;;;;;;4881483;29;20413;-81
2021/03/06 09:28:27;;;;;;;2.20;2.00;;;2.80;99.90;;;;;;4910591;29;20413;-86
2021/03/06 09:30:58;;;;;;;1.60;1.50;;;2.80;99.90;;;;;;4909129;29;20399;-83
2021/03/06 09:33:28;;;;;;;1.83;1.67;;;2.90;99.90;;;;;;4914986;29;20424;-82
2021/03/06 09:35:57;;;;;;;2.92;2.00;;;3.10;99.90;;;;;;4885034;29;20505;-82
2021/03/06 09:38:23;;;;;;;1.95;1.75;;;3.10;99.90;;;;;;4914201;29;20460;-82
2021/03/06 09:40:49;;;;;;;1.80;1.70;;;3.20;99.90;;;;;;4920168;29;20488;-84
2021/03/06 09:43:15;;;;;;;1.80;1.70;;;3.40;99.90;;;;;;4905683;29;20451;-79
2021/03/06 09:45:41;;;;;;;1.98;1.80;;;3.40;99.90;;;;;;4903236;29;20413;-78
2021/03/06 09:48:15;;;;;;;3.40;1.90;;;3.40;99.90;;;;;;4894602;29;20461;-78
2021/03/06 09:50:44;;;;;;;1.77;1.67;;;3.50;99.90;;;;;;4880122;29;20966;-79
2021/03/06 09:53:18;;;;;;;2.00;1.90;;;3.60;99.90;;;;;;4875250;29;20404;-79
2021/03/06 09:55:43;;;;;;;8.48;4.45;;;3.70;99.90;;;;;;4890805;29;20420;-80
2021/03/06 09:58:17;;;;;;;1.90;1.80;;;3.80;99.90;;;;;;4908429;29;20399;-79
2021/03/06 10:00:42;;;;;;;1.90;1.60;;;3.80;99.90;;;;;;4886618;29;20452;-79
2021/03/06 10:03:08;;;;;;;2.13;1.92;;;3.80;99.90;;;;;;4913306;29;21208;-81
2021/03/06 10:05:34;;;;;;;1.90;1.80;;;3.80;99.90;;;;;;4913177;29;20428;-80
2021/03/06 10:08:00;;;;;;;4.03;2.42;;;4.00;99.90;;;;;;4912682;29;20496;-84
2021/03/06 10:10:26;;;;;;;2.97;2.10;;;4.00;99.90;;;;;;4911898;29;20485;-79
2021/03/06 10:12:52;;;;;;;4.72;2.22;;;4.00;99.90;;;;;;4881798;29;20449;-81
2021/03/06 10:15:18;;;;;;;3.03;1.88;;;3.90;99.90;;;;;;4889273;29;20984;-80
2021/03/06 10:17:43;;;;;;;2.53;1.93;;;3.90;99.90;;;;;;4863725;29;20449;-81
2021/03/06 10:20:10;;;;;;;2.13;1.92;;;4.10;99.90;;;;;;4879028;29;20463;-79
2021/03/06 10:22:47;;;;;;;2.03;1.88;;;4.10;99.90;;;;;;4881796;29;20441;-81
2021/03/06 10:25:16;;;;;;;2.08;1.88;;;4.30;99.90;;;;;;4899671;29;20418;-81
2021/03/06 10:27:43;;;;;;;2.17;1.98;;;4.40;99.90;;;;;;4904864;29;20410;-80
2021/03/06 10:30:08;;;;;;;2.58;1.98;;;4.50;99.90;;;;;;4885738;29;20409;-80
2021/03/06 10:32:38;;;;;;;1.95;1.75;;;4.60;99.90;;;;;;4915252;29;20413;-80
2021/03/06 10:35:05;;;;;;;1.70;1.60;;;4.90;99.90;;;;;;4890928;29;20427;-80
2021/03/06 10:37:30;;;;;;;2.67;1.52;;;4.90;99.90;;;;;;4895036;29;22336;-80
2021/03/06 10:40:03;;;;;;;1.35;1.20;;;5.00;99.90;;;;;;4864993;29;20422;-79
2021/03/06 10:42:45;;;;;;;1.40;1.08;;;5.30;99.90;;;;;;4883586;29;20900;-80
2021/03/06 10:45:25;;;;;;;2.17;1.45;;;5.30;99.90;;;;;;4888818;29;20417;-80
2021/03/06 10:47:53;;;;;;;2.33;1.45;;;5.20;99.90;;;;;;4881008;29;20401;-79
2021/03/06 10:50:25;;;;;;;1.52;1.38;;;5.20;99.90;;;;;;4892847;29;21100;-78
2021/03/06 10:52:52;;;;;;;1.33;1.25;;;5.00;99.90;;;;;;4897573;29;20771;-80
2021/03/06 10:55:32;;;;;;;1.27;1.17;;;5.00;99.90;;;;;;4895131;29;20434;-78
2021/03/06 10:57:59;;;;;;;1.20;1.10;;;5.20;99.90;;;;;;4902935;29;20405;-84
2021/03/06 11:00:25;;;;;;;1.20;1.10;;;5.30;99.90;;;;;;4894749;29;20403;-77
2021/03/06 11:02:55;;;;;;;1.48;1.30;;;5.50;99.90;;;;;;4890863;29;20403;-79
2021/03/06 11:05:21;;;;;;;1.50;1.40;;;5.60;99.90;;;;;;4886552;29;20739;-80
2021/03/06 11:07:47;;;;;;;1.50;1.40;;;5.70;99.90;;;;;;4911437;29;20410;-80
2021/03/06 11:10:16;;;;;;;1.08;1.08;;;5.70;99.90;;;;;;4885014;29;20762;-80
2021/03/06 11:12:55;;;;;;;1.88;1.33;;;5.80;99.90;;;;;;4910307;29;20447;-80
2021/03/06 11:15:23;;;;;;;1.50;1.40;;;5.90;99.90;;;;;;4897003;29;20820;-83
2021/03/06 11:17:54;;;;;;;1.27;1.20;;;6.00;99.90;;;;;;4912694;29;20401;-82
2021/03/06 11:20:20;;;;;;;1.45;1.30;;;6.00;99.90;;;;;;4888236;29;20784;-79
2021/03/06 11:22:46;;;;;;;1.40;1.30;;;6.10;99.90;;;;;;4904154;29;20988;-80
2021/03/06 11:25:12;;;;;;;1.80;1.40;;;6.10;99.90;;;;;;4896232;29;20453;-79
2021/03/06 11:27:44;;;;;;;1.27;1.20;;;6.20;99.90;;;;;;4879485;29;20770;-79
2021/03/06 11:30:11;;;;;;;3.60;2.03;;;6.50;99.90;;;;;;4904680;29;20412;-80
2021/03/06 11:32:36;;;;;;;3.30;2.00;;;6.20;99.90;;;;;;4891429;29;20395;-80
2021/03/06 11:35:03;;;;;;;3.72;2.40;;;6.40;99.90;;;;;;4861161;29;20881;-79
2021/03/06 11:37:30;;;;;;;3.60;1.92;;;6.60;99.90;;;;;;4872682;29;20405;-79
2021/03/06 11:39:55;;;;;;;1.60;1.42;;;6.70;99.90;;;;;;4907622;29;20478;-79
2021/03/06 11:42:21;;;;;;;1.38;1.27;;;6.80;99.90;;;;;;4907559;29;20823;-82
2021/03/06 11:44:47;;;;;;;1.58;1.48;;;6.70;99.90;;;;;;4890976;29;20463;-80
2021/03/06 11:47:13;;;;;;;2.00;1.40;;;6.80;99.90;;;;;;4888135;29;20428;-80
2021/03/06 11:49:38;;;;;;;1.70;1.48;;;6.90;99.90;;;;;;4908980;29;20963;-79
2021/03/06 11:52:05;;;;;;;1.50;1.40;;;7.00;99.90;;;;;;4910804;29;20388;-79
2021/03/06 11:54:31;;;;;;;1.40;1.30;;;6.80;99.90;;;;;;4894793;29;20415;-80
2021/03/06 11:56:57;;;;;;;2.67;1.50;;;6.80;99.90;;;;;;4894232;29;20512;-80
2021/03/06 11:59:22;;;;;;;1.58;1.13;;;7.00;99.90;;;;;;4910955;29;20480;-81
2021/03/06 12:01:48;;;;;;;1.20;1.10;;;7.20;99.90;;;;;;4909593;29;20413;-79
2021/03/06 12:04:14;;;;;;;1.80;1.30;;;7.00;99.90;;;;;;4891253;29;20403;-80
2021/03/06 12:06:40;;;;;;;1.23;1.17;;;6.80;99.90;;;;;;4891602;29;20440;-84
2021/03/06 12:09:06;;;;;;;1.90;1.50;;;6.50;99.90;;;;;;4897937;29;20756;-81
2021/03/06 12:11:32;;;;;;;1.45;1.35;;;6.30;99.90;;;;;;4895480;29;20956;-81
2021/03/06 12:13:58;;;;;;;2.50;2.05;;;6.30;99.90;;;;;;4910894;29;20783;-84
2021/03/06 12:16:24;;;;;;;2.00;1.57;;;6.40;99.90;;;;;;4894448;29;20432;-82
2021/03/06 12:18:50;;;;;;;2.45;2.13;;;6.20;99.90;;;;;;4912054;29;20408;-81
2021/03/06 12:21:16;;;;;;;1.58;1.48;;;6.40;99.90;;;;;;4910784;29;20428;-79
2021/03/06 12:23:42;;;;;;;1.60;1.50;;;6.70;99.90;;;;;;4910608;29;20500;-79
2021/03/06 12:26:08;;;;;;;1.70;1.60;;;6.60;99.90;;;;;;4886480;29;20405;-81
2021/03/06 12:28:33;;;;;;;1.50;1.40;;;6.60;99.90;;;;;;4903771;29;20494;-79
2021/03/06 12:30:59;;;;;;;2.40;2.20;;;6.30;99.90;;;;;;4896536;29;20768;-81
2021/03/06 12:33:25;;;;;;;2.10;1.48;;;6.10;99.90;;;;;;4894209;29;20419;-80
2021/03/06 12:35:50;;;;;;;2.47;1.20;;;5.90;99.90;;;;;;4904123;29;20414;-78
2021/03/06 12:38:16;;;;;;;1.60;1.37;;;6.00;99.90;;;;;;4881856;29;20410;-80
2021/03/06 12:40:42;;;;;;;1.15;1.10;;;5.90;99.90;;;;;;4896916;29;20413;-79
2021/03/06 12:43:07;;;;;;;1.20;1.10;;;5.90;99.90;;;;;;4892111;29;20399;-79
2021/03/06 12:45:33;;;;;;;1.47;1.30;;;5.90;99.90;;;;;;4884778;29;20415;-79
2021/03/06 12:47:59;;;;;;;3.80;1.33;;;5.70;99.90;;;;;;4907071;29;20444;-80
2021/03/06 12:50:25;;;;;;;1.30;1.20;;;5.60;99.90;;;;;;4913666;29;20421;-80
2021/03/06 12:52:50;;;;;;;1.80;1.50;;;5.70;99.90;;;;;;4914295;29;20424;-80
2021/03/06 12:55:16;;;;;;;1.38;1.23;;;5.80;99.90;;;;;;4912936;29;20480;-81
2021/03/06 12:57:42;;;;;;;1.40;1.30;;;5.90;99.90;;;;;;4911285;29;20506;-81
2021/03/06 13:00:08;;;;;;;2.60;1.90;;;5.90;99.90;;;;;;4901756;29;20404;-79
2021/03/06 13:02:34;;;;;;;2.10;1.83;;;5.90;99.90;;;;;;4902817;29;20420;-79
2021/03/06 13:04:59;;;;;;;1.40;1.30;;;5.80;99.90;;;;;;4913851;29;20412;-80
2021/03/06 13:07:25;;;;;;;2.40;1.45;;;5.90;99.90;;;;;;4881839;29;20431;-79
2021/03/06 13:09:50;;;;;;;1.73;1.40;;;5.90;99.90;;;;;;4879443;29;20414;-82